Time;durP1;ratioP1;P1;durP2;ratioP2;P2;SDS_P1;SDS_P2;PMS_P1;PMS_P2;Temp;Humidity;BMP_temperature;BMP_pressure;BME280_temperature;BME280_humidity;BME280_pressure;Samples;Min_cycle;Max_cycle;Signal;HPM_P1;HPM_P2
2022/12/04 00:01:22;;;;;;;;;;;;;;;7.81;100.00;99311.47;6280295;22;19919;-85
2022/12/04 00:04:01;;;;;;;;;;;;;;;7.82;100.00;99307.06;6151719;22;19912;-87
2022/12/04 00:06:27;;;;;;;;;;;;;;;7.99;100.00;99316.94;6150878;22;19921;-85
2022/12/04 00:08:55;;;;;;;;;;;;;;;7.90;100.00;99304.13;6150635;23;20006;-90
2022/12/04 00:11:22;;;;;;;;;;;;;;;7.87;100.00;99314.81;6254260;22;19913;-87
2022/12/04 00:13:57;;;;;;;;;;;;;;;7.85;100.00;99308.69;6280294;22;19952;-88
2022/12/04 00:16:27;;;;;;;;;;;;;;;7.84;100.00;99307.00;6280700;22;19920;-89
2022/12/04 00:18:53;;;;;;;;;;;;;;;7.84;100.00;99309.63;6281146;22;19913;-86
2022/12/04 00:21:19;;;;;;;;;;;;;;;7.81;100.00;99305.34;6151977;23;19917;-82
2022/12/04 00:23:45;;;;;;;;;;;;;;;7.84;100.00;99304.38;6278315;22;19920;-89
2022/12/04 00:26:11;;;;;;;;;;;;;;;7.82;100.00;99302.63;6151343;22;20005;-85
2022/12/04 00:28:37;;;;;;;;;;;;;;;7.82;100.00;99299.16;6151969;23;20217;-85
2022/12/04 00:34:11;;;;;;;;;;;;;;;7.80;100.00;99296.56;6152689;23;19916;-86
2022/12/04 00:36:42;;;;;;;;;;;;;;;7.81;100.00;99294.78;6151047;23;19915;-88
2022/12/04 00:39:33;;;;;;;;;;;;;;;7.80;100.00;99299.22;6253588;22;19913;-92
2022/12/04 00:42:00;;;;;;;;;;;;;;;7.82;100.00;99302.63;6151411;23;19970;-90
2022/12/04 00:44:26;;;;;;;;;;;;;;;7.82;100.00;99310.56;6151706;23;19919;-85
2022/12/04 00:46:51;;;;;;;;;;;;;;;7.83;100.00;99303.47;6151190;23;19952;-82
2022/12/04 00:49:16;;;;;;;;;;;;;;;7.83;100.00;99303.47;6152669;23;19932;-87
2022/12/04 00:51:42;;;;;;;;;;;;;;;7.82;100.00;99307.06;6255572;22;19948;-86
2022/12/04 00:54:07;;;;;;;;;;;;;;;7.84;100.00;99293.81;6150486;23;19917;-84
2022/12/04 00:56:37;;;;;;;;;;;;;;;7.80;100.00;99288.66;6279193;22;19970;-86
2022/12/04 00:59:06;;;;;;;;;;;;;;;7.80;100.00;99293.94;6151970;22;19967;-89
2022/12/04 01:01:34;;;;;;;;;;;;;;;7.81;100.00;99295.63;6151300;23;19912;-88
2022/12/04 01:04:08;;;;;;;;;;;;;;;7.80;100.00;99299.22;6151402;23;20367;-88
2022/12/04 01:09:23;;;;;;;;;;;;;;;7.81;100.00;99306.19;6150034;23;19924;-86
2022/12/04 01:11:48;;;;;;;;;;;;;;;7.82;100.00;99313.19;6151911;23;20248;-83
2022/12/04 01:14:14;;;;;;;;;;;;;;;7.84;100.00;99314.91;6151250;23;19987;-88
2022/12/04 01:16:46;;;;;;;;;;;;;;;7.82;100.00;99320.25;6254338;22;19938;-91
2022/12/04 01:19:12;;;;;;;;;;;;;;;7.83;100.00;99324.59;6280074;22;19955;-84
2022/12/04 01:21:37;;;;;;;;;;;;;;;7.84;100.00;99321.03;6151637;23;19917;-87
2022/12/04 01:24:03;;;;;;;;;;;;;;;7.86;100.00;99321.84;6253188;22;19908;-86
2022/12/04 01:26:29;;;;;;;;;;;;;;;7.93;100.00;99319.81;6150764;23;19920;-92
2022/12/04 01:28:54;;;;;;;;;;;;;;;7.86;100.00;99319.19;6151322;23;19912;-86
2022/12/04 01:31:20;;;;;;;;;;;;;;;7.86;100.00;99318.34;6254827;22;19912;-83
2022/12/04 01:33:47;;;;;;;;;;;;;;;7.85;100.00;99317.50;6151247;23;19913;-88
2022/12/04 01:36:25;;;;;;;;;;;;;;;7.86;100.00;99315.72;6152207;23;19913;-87
2022/12/04 01:38:51;;;;;;;;;;;;;;;7.84;100.00;99315.75;6150486;23;19916;-85
2022/12/04 01:41:27;;;;;;;;;;;;;;;7.84;100.00;99320.19;6151054;23;19981;-84
2022/12/04 01:46:58;;;;;;;;;;;;;;;7.82;100.00;99313.19;6136220;23;19944;-89
2022/12/04 01:49:35;;;;;;;;;;;;;;;7.85;100.00;99316.63;6151844;23;19946;-93
2022/12/04 01:52:14;;;;;;;;;;;;;;;7.84;100.00;99312.28;6151828;23;19912;-86
2022/12/04 01:54:42;;;;;;;;;;;;;;;7.84;100.00;99309.63;6149632;23;19920;-87
2022/12/04 01:57:15;;;;;;;;;;;;;;;7.85;100.00;99306.94;6151681;23;19924;-84
2022/12/04 01:59:50;;;;;;;;;;;;;;;7.83;100.00;99306.13;6150622;23;19920;-84
2022/12/04 02:02:18;;;;;;;;;;;;;;;7.82;100.00;99301.78;6278313;22;19936;-84
2022/12/04 02:04:43;;;;;;;;;;;;;;;7.81;100.00;99290.34;6253560;22;20011;-84
2022/12/04 02:07:09;;;;;;;;;;;;;;;7.82;100.00;99294.72;6151611;23;19936;-89
2022/12/04 02:09:36;;;;;;;;;;;;;;;7.83;100.00;99303.47;6149851;22;20233;-88
2022/12/04 02:12:19;;;;;;;;;;;;;;;7.81;100.00;99298.28;6254479;22;19913;-85
2022/12/04 02:15:10;;;;;;;;;;;;;;;7.83;100.00;99295.56;6279740;22;19955;-86
2022/12/04 02:17:47;;;;;;;;;;;;;;;7.82;100.00;99294.72;6280091;22;19920;-84
2022/12/04 02:20:13;;;;;;;;;;;;;;;7.81;100.00;99289.50;6149507;23;19913;-87
2022/12/04 02:22:44;;;;;;;;;;;;;;;7.81;100.00;99290.34;6150922;23;19912;-84
2022/12/04 02:25:30;;;;;;;;;;;;;;;7.82;100.00;99297.38;6150278;23;19918;-84
2022/12/04 02:28:11;;;;;;;;;;;;;;;7.82;100.00;99297.38;6279373;22;19917;-85
2022/12/04 02:30:39;;;;;;;;;;;;;;;7.81;100.00;99306.19;6280455;22;20240;-83
2022/12/04 02:33:24;;;;;;;;;;;;;;;7.81;100.00;99306.19;6151893;23;19991;-84
2022/12/04 02:36:16;;;;;;;;;;;;;;;7.81;100.00;99300.06;6151859;22;19995;-83
2022/12/04 02:38:46;;;;;;;;;;;;;;;7.81;100.00;99303.53;6147873;22;20015;-85
2022/12/04 02:41:21;;;;;;;;;;;;;;;7.81;100.00;99305.34;6152256;23;19913;-89
2022/12/04 02:43:52;;;;;;;;;;;;;;;7.80;100.00;99309.75;6152428;23;19997;-85
2022/12/04 02:46:17;;;;;;;;;;;;;;;7.80;100.00;99311.50;6152370;23;19970;-90
2022/12/04 02:49:08;;;;;;;;;;;;;;;7.80;100.00;99312.41;6280406;22;19915;-88
2022/12/04 05:42:19;;;;;;;;;;;;;;;7.86;100.00;99334.16;6305637;22;19991;-82
2022/12/04 05:44:44;;;;;;;;;;;;;;;7.85;100.00;99327.16;6280855;22;19914;-83
2022/12/04 05:47:19;;;;;;;;;;;;;;;7.84;100.00;99331.59;6307831;22;19957;-85
2022/12/04 05:49:44;;;;;;;;;;;;;;;7.85;100.00;99333.31;6307771;22;19918;-83
2022/12/04 05:52:09;;;;;;;;;;;;;;;7.85;100.00;99332.44;6307750;22;20334;-82
2022/12/04 05:54:34;;;;;;;;;;;;;;;7.84;100.00;99331.59;6305961;22;19911;-82
2022/12/04 05:57:00;;;;;;;;;;;;;;;7.85;100.00;99332.44;6307805;22;19922;-82
2022/12/04 05:59:25;;;;;;;;;;;;;;;7.84;100.00;99326.31;6308059;22;19934;-82
2022/12/04 06:01:51;;;;;;;;;;;;;;;7.84;100.00;99325.47;6307775;22;19911;-84
2022/12/04 06:04:16;;;;;;;;;;;;;;;7.84;100.00;99323.69;6307765;22;19971;-82
2022/12/04 06:06:41;;;;;;;;;;;;;;;7.86;100.00;99313.06;6307583;22;19934;-82
2022/12/04 06:09:06;;;;;;;;;;;;;;;7.85;100.00;99313.97;6307942;22;19918;-81
2022/12/04 06:11:34;;;;;;;;;;;;;;;7.85;100.00;99306.94;6309712;22;19938;-82
2022/12/04 06:13:59;;;;;;;;;;;;;;;7.86;100.00;99305.16;6282454;22;19915;-82
2022/12/04 06:16:26;;;;;;;;;;;;;;;7.85;100.00;99296.41;6309661;22;19942;-85
2022/12/04 06:18:53;;;;;;;;;;;;;;;7.85;100.00;99306.06;6309617;22;19946;-82
2022/12/04 06:21:18;;;;;;;;;;;;;;;7.84;100.00;99299.94;6309686;22;19919;-82
2022/12/04 06:23:44;;;;;;;;;;;;;;;7.86;100.00;99307.78;6309579;22;20280;-82
2022/12/04 06:26:09;;;;;;;;;;;;;;;7.82;100.00;99302.63;6308106;22;19914;-81
2022/12/04 06:28:35;;;;;;;;;;;;;;;7.84;100.00;99309.63;6309474;22;20273;-83
2022/12/04 06:31:01;;;;;;;;;;;;;;;7.85;100.00;99311.34;6309488;22;20220;-84
2022/12/04 06:33:26;;;;;;;;;;;;;;;7.83;100.00;99319.31;6309879;22;20273;-85
2022/12/04 06:36:02;;;;;;;;;;;;;;;7.84;100.00;99322.81;6309570;22;20341;-85
2022/12/04 06:38:27;;;;;;;;;;;;;;;7.85;100.00;99329.81;6309113;22;19911;-85
2022/12/04 06:40:53;;;;;;;;;;;;;;;7.85;100.00;99328.03;6307727;22;20368;-84
2022/12/04 06:43:18;;;;;;;;;;;;;;;7.86;100.00;99328.91;6309481;22;19960;-85
2022/12/04 06:45:43;;;;;;;;;;;;;;;7.82;100.00;99331.66;6282086;22;20242;-84
2022/12/04 06:48:08;;;;;;;;;;;;;;;7.84;100.00;99330.75;6309857;22;20349;-84
2022/12/04 06:50:34;;;;;;;;;;;;;;;7.84;100.00;99325.47;6309326;22;19918;-84
2022/12/04 06:52:59;;;;;;;;;;;;;;;7.85;100.00;99330.69;6309159;22;20398;-87
2022/12/04 06:55:24;;;;;;;;;;;;;;;7.84;100.00;99321.03;6308116;22;19918;-86
2022/12/04 06:57:49;;;;;;;;;;;;;;;7.85;100.00;99327.16;6309592;22;19950;-84
2022/12/04 07:00:15;;;;;;;;;;;;;;;7.86;100.00;99326.25;6309298;22;19911;-84
2022/12/04 07:02:40;;;;;;;;;;;;;;;7.86;100.00;99326.25;6309205;22;19946;-84
2022/12/04 07:05:06;;;;;;;;;;;;;;;7.86;100.00;99326.25;6309288;22;19911;-84
2022/12/04 07:07:31;;;;;;;;;;;;;;;7.86;100.00;99323.63;6309142;22;19945;-84
2022/12/04 07:09:56;;;;;;;;;;;;;;;7.85;100.00;99321.88;6307583;22;19911;-84
2022/12/04 07:12:21;;;;;;;;;;;;;;;7.86;100.00;99324.47;6309519;22;19911;-84
2022/12/04 07:14:46;;;;;;;;;;;;;;;7.88;100.00;99327.06;6309582;22;20375;-84
2022/12/04 07:17:12;;;;;;;;;;;;;;;7.86;100.00;99329.75;6309099;22;19911;-84
2022/12/04 07:19:37;;;;;;;;;;;;;;;7.87;100.00;99326.19;6308932;22;19993;-84
2022/12/04 07:22:02;;;;;;;;;;;;;;;7.86;100.00;99328.91;6309238;22;19911;-84
2022/12/04 07:24:28;;;;;;;;;;;;;;;7.87;100.00;99335.91;6307677;22;19911;-84
2022/12/04 07:26:53;;;;;;;;;;;;;;;7.87;100.00;99342.03;6309115;22;19911;-84
2022/12/04 07:29:18;;;;;;;;;;;;;;;7.88;100.00;99337.59;6308974;22;20115;-84
2022/12/04 07:31:43;;;;;;;;;;;;;;;7.89;100.00;99340.19;6282026;22;19964;-84
2022/12/04 07:34:09;;;;;;;;;;;;;;;7.89;100.00;99344.59;6309081;22;19915;-84
2022/12/04 07:36:34;;;;;;;;;;;;;;;7.89;100.00;99347.25;6308954;22;19950;-84
2022/12/04 07:38:59;;;;;;;;;;;;;;;7.90;100.00;99351.63;6308351;22;19914;-84
2022/12/04 07:41:24;;;;;;;;;;;;;;;7.89;100.00;99355.16;6307670;22;19915;-84
2022/12/04 07:43:50;;;;;;;;;;;;;;;7.89;100.00;99350.72;6308849;22;19911;-84
2022/12/04 07:46:20;;;;;;;;;;;;;;;7.89;100.00;99347.25;6308960;22;19949;-84
2022/12/04 07:48:45;;;;;;;;;;;;;;;7.90;100.00;99352.47;6308820;22;19915;-84
2022/12/04 07:51:12;;;;;;;;;;;;;;;7.90;100.00;99344.53;6308890;22;19911;-84
2022/12/04 07:53:37;;;;;;;;;;;;;;;7.90;100.00;99347.19;6308474;22;19939;-84
2022/12/04 07:56:03;;;;;;;;;;;;;;;7.92;100.00;99352.41;6307145;22;19911;-84
2022/12/04 13:55:44;;;;;;;;;;;;;;;8.11;100.00;99255.75;6282343;22;19926;-82
2022/12/04 13:58:09;;;;;;;;;;;;;;;8.11;100.00;99245.19;6268283;22;19914;-82
2022/12/04 14:00:35;;;;;;;;;;;;;;;8.12;100.00;99246.03;6338098;22;19914;-82
2022/12/04 14:03:20;;;;;;;;;;;;;;;8.11;100.00;99245.19;6363133;22;19934;-83
2022/12/04 14:05:46;;;;;;;;;;;;;;;8.12;100.00;99244.28;6362892;22;19921;-81
2022/12/04 14:08:17;;;;;;;;;;;;;;;8.10;100.00;99246.09;6336311;22;19989;-81
2022/12/04 14:10:44;;;;;;;;;;;;;;;8.10;100.00;99243.47;6337760;22;20352;-82
2022/12/04 14:13:12;;;;;;;;;;;;;;;8.11;100.00;99242.56;6337941;22;19996;-81
2022/12/04 14:15:40;;;;;;;;;;;;;;;8.11;100.00;99242.56;6337924;22;19934;-82
2022/12/04 14:18:12;;;;;;;;;;;;;;;8.12;100.00;99241.66;6337646;22;19921;-83
2022/12/04 14:20:38;;;;;;;;;;;;;;;8.13;100.00;99245.13;6337808;22;19910;-82
2022/12/04 14:23:07;;;;;;;;;;;;;;;8.14;100.00;99245.06;6336792;22;20032;-82
2022/12/04 14:25:35;;;;;;;;;;;;;;;8.15;100.00;99238.00;6337604;22;19910;-81
2022/12/04 14:28:11;;;;;;;;;;;;;;;8.14;100.00;99241.59;6337945;22;19914;-81
2022/12/04 14:30:39;;;;;;;;;;;;;;;8.13;100.00;99243.34;6339639;22;19910;-82
2022/12/04 14:33:07;;;;;;;;;;;;;;;8.14;100.00;99249.50;6339767;22;19946;-82
2022/12/04 14:35:32;;;;;;;;;;;;;;;8.14;100.00;99249.50;6338027;22;19915;-82
2022/12/04 14:38:00;;;;;;;;;;;;;;;8.14;100.00;99249.50;6339516;22;20313;-82
2022/12/04 14:40:34;;;;;;;;;;;;;;;8.13;100.00;99245.97;6338953;22;19966;-81
2022/12/04 14:42:59;;;;;;;;;;;;;;;8.12;100.00;99246.03;6338360;22;19910;-82
2022/12/04 14:45:25;;;;;;;;;;;;;;;8.11;100.00;99250.47;6339634;22;20254;-82
2022/12/04 14:47:53;;;;;;;;;;;;;;;8.13;100.00;99250.41;6339534;22;19941;-82
2022/12/04 14:50:38;;;;;;;;;;;;;;;8.12;100.00;99251.31;6339540;22;19914;-82
2022/12/04 14:53:12;;;;;;;;;;;;;;;8.13;100.00;99248.63;6339527;22;19942;-81
2022/12/04 14:55:45;;;;;;;;;;;;;;;8.14;100.00;99245.06;6339211;22;19914;-82
2022/12/04 14:58:29;;;;;;;;;;;;;;;8.13;100.00;99243.34;6339212;22;20242;-82
2022/12/04 15:00:58;;;;;;;;;;;;;;;8.12;100.00;99249.56;6338997;22;19918;-82
2022/12/04 15:03:25;;;;;;;;;;;;;;;8.12;100.00;99239.00;6339495;22;19911;-82
2022/12/04 15:05:50;;;;;;;;;;;;;;;8.14;100.00;99245.06;6337981;22;19923;-82
2022/12/04 15:08:18;;;;;;;;;;;;;;;8.14;100.00;99247.72;6337689;22;19914;-82
2022/12/04 15:13:33;;;;;;;;;;;;;;;8.12;100.00;99251.31;6338952;22;19917;-82
2022/12/04 15:16:36;;;;;;;;;;;;;;;8.10;100.00;99243.47;6339043;22;20326;-82
2022/12/04 15:19:02;;;;;;;;;;;;;;;8.12;100.00;99236.38;6324667;22;20332;-83
2022/12/04 15:21:33;;;;;;;;;;;;;;;8.13;100.00;99243.34;6339197;22;19997;-82
2022/12/04 15:23:58;;;;;;;;;;;;;;;8.14;100.00;99244.22;6337494;22;19906;-82
2022/12/04 15:26:24;;;;;;;;;;;;;;;8.13;100.00;99242.50;6339247;22;19911;-82
2022/12/04 15:28:52;;;;;;;;;;;;;;;8.15;100.00;99248.56;6338016;22;19906;-82
2022/12/04 15:31:38;;;;;;;;;;;;;;;8.17;100.00;99255.50;6339226;22;19910;-82
2022/12/04 15:34:08;;;;;;;;;;;;;;;8.15;100.00;99259.13;6339104;22;19910;-82
2022/12/04 15:36:33;;;;;;;;;;;;;;;8.15;100.00;99259.13;6339173;22;19907;-82
2022/12/04 15:38:59;;;;;;;;;;;;;;;8.13;100.00;99251.25;6337728;22;20329;-82
2022/12/04 15:41:34;;;;;;;;;;;;;;;8.12;100.00;99252.19;6339057;22;20234;-82
2022/12/04 15:44:00;;;;;;;;;;;;;;;8.12;100.00;99252.19;6339081;22;19949;-82
2022/12/04 15:46:31;;;;;;;;;;;;;;;8.13;100.00;99250.41;6339179;22;19914;-82
2022/12/04 15:49:13;;;;;;;;;;;;;;;8.14;100.00;99244.22;6338738;22;19963;-82
2022/12/04 15:51:38;;;;;;;;;;;;;;;8.12;100.00;99244.28;6338745;22;19915;-83
2022/12/04 15:54:04;;;;;;;;;;;;;;;8.11;100.00;99245.19;6337323;22;19934;-83
2022/12/04 15:56:29;;;;;;;;;;;;;;;8.13;100.00;99237.22;6338878;22;19982;-82
2022/12/04 15:58:59;;;;;;;;;;;;;;;8.12;100.00;99238.13;6337456;22;19915;-82
2022/12/04 16:01:25;;;;;;;;;;;;;;;8.13;100.00;99243.34;6337130;22;19917;-82
2022/12/04 16:03:54;;;;;;;;;;;;;;;8.13;100.00;99238.06;6339065;22;19910;-82
2022/12/04 16:06:24;;;;;;;;;;;;;;;8.13;100.00;99238.06;6338910;22;20284;-82
2022/12/04 16:09:09;;;;;;;;;;;;;;;8.12;100.00;99241.66;6337273;22;19986;-82
2022/12/04 16:11:36;;;;;;;;;;;;;;;8.11;100.00;99242.56;6338076;22;20388;-82
2022/12/04 16:14:04;;;;;;;;;;;;;;;8.13;100.00;99245.97;6337320;22;19921;-82
2022/12/04 16:16:31;;;;;;;;;;;;;;;8.12;100.00;99244.28;6338785;22;19918;-81
2022/12/04 16:19:00;;;;;;;;;;;;;;;8.13;100.00;99245.97;6363021;22;20234;-82
2022/12/04 16:21:30;;;;;;;;;;;;;;;8.14;100.00;99250.34;6363265;22;20300;-82
2022/12/04 16:23:59;;;;;;;;;;;;;;;8.12;100.00;99244.28;6337031;22;19982;-82
2022/12/04 16:26:25;;;;;;;;;;;;;;;8.13;100.00;99256.53;6363128;22;19915;-82
2022/12/04 16:28:53;;;;;;;;;;;;;;;8.14;100.00;99254.78;6338564;22;20027;-83
2022/12/04 16:31:21;;;;;;;;;;;;;;;8.13;100.00;99248.63;6336683;22;19937;-84
2022/12/04 16:33:46;;;;;;;;;;;;;;;8.14;100.00;99253.00;6338452;22;19918;-82
2022/12/04 16:36:11;;;;;;;;;;;;;;;8.14;100.00;99253.00;6338396;22;19910;-81
2022/12/04 16:38:37;;;;;;;;;;;;;;;8.15;100.00;99253.84;6335116;22;19956;-81
2022/12/04 16:41:05;;;;;;;;;;;;;;;8.15;100.00;99251.19;6338311;22;20008;-81
2022/12/04 16:43:31;;;;;;;;;;;;;;;8.14;100.00;99255.63;6336887;22;20226;-81
2022/12/04 16:45:58;;;;;;;;;;;;;;;8.28;100.00;99256.81;6338935;22;19997;-85
2022/12/04 16:48:26;;;;;;;;;;;;;;;8.21;100.00;99250.94;6338393;22;19914;-84
2022/12/04 16:50:53;;;;;;;;;;;;;;;8.17;100.00;99244.94;6337995;22;19953;-86
2022/12/04 16:53:19;;;;;;;;;;;;;;;8.17;100.00;99252.88;6336758;22;19921;-85
2022/12/04 16:55:46;;;;;;;;;;;;;;;8.16;100.00;99248.50;6362482;22;19924;-84
2022/12/04 16:58:14;;;;;;;;;;;;;;;8.15;100.00;99246.81;6337961;22;19987;-86
2022/12/04 17:00:42;;;;;;;;;;;;;;;8.14;100.00;99242.44;6337966;22;19915;-84
2022/12/04 17:03:20;;;;;;;;;;;;;;;8.16;100.00;99245.84;6338236;22;19911;-93
2022/12/04 17:05:48;;;;;;;;;;;;;;;8.14;100.00;99244.22;6362792;22;19922;-86
2022/12/04 17:08:16;;;;;;;;;;;;;;;8.15;100.00;99252.09;6335989;22;20215;-87
2022/12/04 17:10:41;;;;;;;;;;;;;;;8.16;100.00;99250.28;6362500;22;19910;-86
2022/12/04 17:13:12;;;;;;;;;;;;;;;8.16;100.00;99255.56;6336727;22;20014;-86
2022/12/04 17:15:37;;;;;;;;;;;;;;;8.16;100.00;99256.41;6338610;22;19911;-88
2022/12/04 17:18:07;;;;;;;;;;;;;;;8.17;100.00;99252.88;6338002;22;19997;-85
2022/12/04 17:20:33;;;;;;;;;;;;;;;8.17;100.00;99255.50;6338876;22;20308;-85
2022/12/04 17:22:58;;;;;;;;;;;;;;;8.16;100.00;99258.22;6337471;22;19979;-84
2022/12/04 17:25:23;;;;;;;;;;;;;;;8.17;100.00;99259.94;6337721;22;19910;-85
2022/12/04 17:27:54;;;;;;;;;;;;;;;8.16;100.00;99261.69;6339145;22;19970;-87
2022/12/04 17:30:19;;;;;;;;;;;;;;;8.18;100.00;99269.53;6338530;22;19911;-84
2022/12/04 17:32:46;;;;;;;;;;;;;;;8.17;100.00;99276.63;6338175;22;19991;-91
2022/12/04 17:35:17;;;;;;;;;;;;;;;8.18;100.00;99283.63;6336192;22;19910;-87
2022/12/04 17:37:42;;;;;;;;;;;;;;;8.17;100.00;99273.97;6364775;22;19911;-85
2022/12/04 17:40:13;;;;;;;;;;;;;;;8.17;100.00;99278.41;6336464;22;19910;-89
2022/12/04 17:42:38;;;;;;;;;;;;;;;8.17;100.00;99276.63;6337659;22;19911;-90
2022/12/04 17:45:07;;;;;;;;;;;;;;;8.19;100.00;99280.03;6338405;22;19918;-89
2022/12/04 17:47:36;;;;;;;;;;;;;;;8.18;100.00;99283.63;6339258;22;19918;-86
2022/12/04 17:50:01;;;;;;;;;;;;;;;8.18;100.00;99283.63;6338188;22;19938;-89
2022/12/04 17:52:30;;;;;;;;;;;;;;;8.18;100.00;99282.75;6362978;22;20333;-87
2022/12/04 17:54:55;;;;;;;;;;;;;;;8.17;100.00;99281.91;6361278;22;19915;-84
2022/12/04 17:57:21;;;;;;;;;;;;;;;8.18;100.00;99283.63;6338457;22;20219;-83
2022/12/04 17:59:47;;;;;;;;;;;;;;;8.17;100.00;99281.91;6338739;22;19911;-84
2022/12/04 18:02:12;;;;;;;;;;;;;;;8.18;100.00;99283.63;6362863;22;19987;-87
2022/12/04 18:04:37;;;;;;;;;;;;;;;8.17;100.00;99283.69;6363749;22;19956;-86
2022/12/04 18:07:03;;;;;;;;;;;;;;;8.19;100.00;99290.59;6338377;22;19915;-87
2022/12/04 18:09:28;;;;;;;;;;;;;;;8.18;100.00;99288.03;6339221;22;19918;-85
2022/12/04 18:11:56;;;;;;;;;;;;;;;8.19;100.00;99284.47;6340323;22;19918;-85
2022/12/04 18:14:22;;;;;;;;;;;;;;;8.19;100.00;99284.47;6364896;22;19911;-85
2022/12/04 18:16:51;;;;;;;;;;;;;;;8.21;100.00;99287.06;6339131;22;19985;-85
2022/12/04 18:19:20;;;;;;;;;;;;;;;8.19;100.00;99285.31;6365606;22;19910;-93
2022/12/04 18:21:45;;;;;;;;;;;;;;;8.21;100.00;99281.78;6338533;22;19921;-85
2022/12/04 18:24:11;;;;;;;;;;;;;;;8.19;100.00;99285.31;6363373;22;19946;-85
2022/12/04 18:26:37;;;;;;;;;;;;;;;8.19;100.00;99282.69;6339422;22;19910;-85
2022/12/04 18:29:09;;;;;;;;;;;;;;;8.22;100.00;99291.38;6340292;22;19945;-94
2022/12/04 18:31:34;;;;;;;;;;;;;;;8.21;100.00;99287.06;6340528;22;19979;-85
2022/12/04 18:34:00;;;;;;;;;;;;;;;8.21;100.00;99293.19;6338073;22;19948;-86
2022/12/04 18:36:27;;;;;;;;;;;;;;;8.22;100.00;99301.94;6340762;22;19910;-88
2022/12/04 18:38:55;;;;;;;;;;;;;;;8.22;100.00;99291.38;6337448;22;20349;-85
2022/12/04 18:41:24;;;;;;;;;;;;;;;8.22;100.00;99296.66;6364378;22;20318;-88
2022/12/04 18:43:58;;;;;;;;;;;;;;;8.22;100.00;99299.31;6339404;22;19910;-89
2022/12/04 18:46:24;;;;;;;;;;;;;;;8.23;100.00;99303.69;6340966;22;19997;-86
2022/12/04 18:48:52;;;;;;;;;;;;;;;8.24;100.00;99308.03;6339708;22;19981;-87
2022/12/04 18:51:17;;;;;;;;;;;;;;;8.24;100.00;99308.03;6340095;22;19921;-84
2022/12/04 18:53:42;;;;;;;;;;;;;;;8.24;100.00;99305.41;6336259;22;19907;-85
2022/12/04 18:56:10;;;;;;;;;;;;;;;8.23;100.00;99312.44;6339630;22;19925;-87
2022/12/04 18:58:35;;;;;;;;;;;;;;;8.24;100.00;99313.31;6339703;22;19918;-85
2022/12/04 19:01:05;;;;;;;;;;;;;;;8.23;100.00;99312.44;6365508;22;19917;-88
2022/12/04 19:03:52;;;;;;;;;;;;;;;8.24;100.00;99310.69;6365382;22;19985;-90
2022/12/04 19:06:17;;;;;;;;;;;;;;;8.25;100.00;99315.91;6364311;22;19938;-86
2022/12/04 19:08:43;;;;;;;;;;;;;;;8.25;100.00;99317.66;6336572;22;19922;-86
2022/12/04 19:11:10;;;;;;;;;;;;;;;8.25;100.00;99320.28;6337861;22;19911;-86
2022/12/04 19:13:35;;;;;;;;;;;;;;;8.25;100.00;99315.91;6363982;22;20448;-85
2022/12/04 19:16:01;;;;;;;;;;;;;;;8.26;100.00;99322.03;6338189;22;19915;-85
2022/12/04 19:18:26;;;;;;;;;;;;;;;8.26;100.00;99322.03;6340186;22;19911;-84
2022/12/04 19:20:52;;;;;;;;;;;;;;;8.26;100.00;99324.66;6338825;22;19910;-85
2022/12/04 19:23:19;;;;;;;;;;;;;;;8.25;100.00;99331.72;6336243;22;19950;-84
2022/12/04 19:25:52;;;;;;;;;;;;;;;8.26;100.00;99337.88;6364342;22;19911;-85
2022/12/04 19:28:21;;;;;;;;;;;;;;;8.27;100.00;99329.03;6338923;22;20284;-92
2022/12/04 19:30:46;;;;;;;;;;;;;;;8.27;100.00;99339.59;6338292;22;20365;-84
2022/12/04 19:33:11;;;;;;;;;;;;;;;8.26;100.00;99344.00;6339579;22;19942;-86
2022/12/04 19:36:16;;;;;;;;;;;;;;;8.27;100.00;99345.72;6337291;22;19911;-91
2022/12/04 19:38:41;;;;;;;;;;;;;;;8.27;100.00;99343.09;6338292;22;19911;-85
2022/12/04 19:41:08;;;;;;;;;;;;;;;8.27;100.00;99350.16;6340137;22;20021;-85
2022/12/04 19:43:33;;;;;;;;;;;;;;;8.27;100.00;99352.78;6339393;22;19933;-85
2022/12/04 19:46:21;;;;;;;;;;;;;;;8.26;100.00;99348.41;6339396;22;20310;-89
2022/12/04 19:48:48;;;;;;;;;;;;;;;8.26;100.00;99349.28;6339204;22;19934;-87
2022/12/04 19:51:15;;;;;;;;;;;;;;;8.26;100.00;99353.69;6338549;22;19938;-84
2022/12/04 19:53:41;;;;;;;;;;;;;;;8.27;100.00;99352.78;6362411;22;19922;-83
2022/12/04 19:56:10;;;;;;;;;;;;;;;8.28;100.00;99357.13;6338827;22;19915;-83
2022/12/04 19:58:36;;;;;;;;;;;;;;;8.26;100.00;99353.69;6339330;22;19997;-85
2022/12/04 20:01:02;;;;;;;;;;;;;;;8.27;100.00;99355.44;6339063;22;20321;-84
2022/12/04 20:03:27;;;;;;;;;;;;;;;8.28;100.00;99360.66;6339247;22;19914;-85
2022/12/04 20:05:52;;;;;;;;;;;;;;;8.29;100.00;99357.06;6338167;22;19957;-86
2022/12/04 20:08:25;;;;;;;;;;;;;;;8.29;100.00;99358.84;6338557;22;19914;-87
2022/12/04 20:10:50;;;;;;;;;;;;;;;8.28;100.00;99362.41;6339752;22;20330;-86
2022/12/04 20:13:15;;;;;;;;;;;;;;;8.27;100.00;99361.56;6336681;22;19921;-86
2022/12/04 20:15:41;;;;;;;;;;;;;;;8.28;100.00;99358.00;6340037;22;20230;-86
2022/12/04 20:18:08;;;;;;;;;;;;;;;8.28;100.00;99367.69;6337698;22;19948;-85
2022/12/04 20:20:34;;;;;;;;;;;;;;;8.27;100.00;99361.56;6304579;22;19964;-85
2022/12/04 20:23:03;;;;;;;;;;;;;;;8.28;100.00;99357.13;6304872;22;19911;-88
2022/12/04 20:25:29;;;;;;;;;;;;;;;8.29;100.00;99364.13;6211235;23;19912;-85
2022/12/04 20:27:54;;;;;;;;;;;;;;;8.29;100.00;99364.13;6213292;23;19966;-85
2022/12/04 20:30:20;;;;;;;;;;;;;;;8.28;100.00;99362.41;6187921;23;19912;-85
2022/12/04 20:32:45;;;;;;;;;;;;;;;8.29;100.00;99354.44;6212723;23;19947;-86
2022/12/04 20:35:10;;;;;;;;;;;;;;;8.30;100.00;99357.94;6212109;23;19951;-87
2022/12/04 20:37:36;;;;;;;;;;;;;;;8.30;100.00;99365.88;6205323;23;19912;-85
2022/12/04 20:40:03;;;;;;;;;;;;;;;8.29;100.00;99354.44;6211957;23;19934;-86
2022/12/04 20:42:28;;;;;;;;;;;;;;;8.28;100.00;99359.75;6212675;23;19986;-84
2022/12/04 20:44:54;;;;;;;;;;;;;;;8.29;100.00;99358.84;6238316;22;19915;-85
2022/12/04 20:47:23;;;;;;;;;;;;;;;8.29;100.00;99354.44;6274551;22;20355;-91
2022/12/04 20:49:49;;;;;;;;;;;;;;;8.28;100.00;99354.50;6300473;22;19910;-86
2022/12/04 20:52:23;;;;;;;;;;;;;;;8.28;100.00;99359.75;6338243;22;19918;-90
2022/12/04 20:54:48;;;;;;;;;;;;;;;8.28;100.00;99358.00;6350609;22;19930;-85
2022/12/04 20:57:14;;;;;;;;;;;;;;;8.28;100.00;99359.75;6337092;22;19914;-86
2022/12/04 20:59:39;;;;;;;;;;;;;;;8.28;100.00;99363.28;6338112;22;19915;-89
2022/12/04 21:02:04;;;;;;;;;;;;;;;8.29;100.00;99364.13;6337660;22;19920;-85
2022/12/04 21:04:29;;;;;;;;;;;;;;;8.28;100.00;99357.13;6336873;22;20322;-85
2022/12/04 21:06:55;;;;;;;;;;;;;;;8.28;100.00;99357.13;6337054;22;19914;-85
2022/12/04 21:09:21;;;;;;;;;;;;;;;8.28;100.00;99357.13;6338195;22;19930;-85
2022/12/04 21:11:48;;;;;;;;;;;;;;;8.27;100.00;99356.28;6339175;22;19917;-85
2022/12/04 21:17:00;;;;;;;;;;;;;;;8.30;100.00;99361.44;6339640;22;20044;-89
2022/12/04 21:19:26;;;;;;;;;;;;;;;8.29;100.00;99356.22;6338428;22;19918;-86
2022/12/04 21:21:51;;;;;;;;;;;;;;;8.29;100.00;99364.13;6337702;22;19911;-85
2022/12/04 21:24:18;;;;;;;;;;;;;;;8.28;100.00;99355.38;6362093;22;19911;-85
2022/12/04 21:26:43;;;;;;;;;;;;;;;8.29;100.00;99358.84;6364297;22;20314;-84
2022/12/04 21:29:09;;;;;;;;;;;;;;;8.30;100.00;99360.59;6337007;22;19918;-87
2022/12/04 21:31:35;;;;;;;;;;;;;;;8.28;100.00;99362.41;6339484;22;19910;-88
2022/12/04 21:34:01;;;;;;;;;;;;;;;8.28;100.00;99365.94;6363725;22;19945;-85
2022/12/04 21:36:27;;;;;;;;;;;;;;;8.28;100.00;99363.28;6362397;22;19911;-85
2022/12/04 21:38:55;;;;;;;;;;;;;;;8.29;100.00;99364.13;6335462;22;20238;-89
2022/12/04 21:44:09;;;;;;;;;;;;;;;8.29;100.00;99366.78;6338153;22;19975;-86
2022/12/04 21:46:35;;;;;;;;;;;;;;;8.29;100.00;99369.41;6338336;22;20014;-82
2022/12/04 21:49:00;;;;;;;;;;;;;;;8.29;100.00;99366.78;6363443;22;20330;-85
2022/12/04 21:51:26;;;;;;;;;;;;;;;8.30;100.00;99371.16;6336401;22;19918;-85
2022/12/04 21:53:53;;;;;;;;;;;;;;;8.30;100.00;99382.56;6361703;22;19968;-87
2022/12/04 21:56:21;;;;;;;;;;;;;;;8.29;100.00;99382.63;6335732;22;20387;-85
2022/12/04 21:58:47;;;;;;;;;;;;;;;8.29;100.00;99387.91;6362756;22;20234;-84